24°C Temp
11°C Dewpoint
44% Humidity
Temperature
5 KM/H
3 MPH
3 KTS
Calm
Due North

Wind Speed
Partly Cloudy
Conditions
Pressure 1018.92 (hPa) - 30.09 (in)
Visibility 6.2 (mi) - 10.0 (km)

Current Conditions
LGAV
Location 35(km)
Metar :LGAV 230820Z VRB03KT 9999 FEW030 24/11 Q1019 NOSIG
Mon 23rd September 11:20 am

Airport
  Metar Aviation API Data Provided by https://www.checkwx.com/ PHP scripts by weather34.com ©2019